Tropical Cyclones
[Index]
Main Index Home Page Stock Weather Photos Extreme Storms Discussion Storm News and Storm Chasing Reports Tropical Cyclones / Hurricanes / Typhoons Weather Data and Links Wild Fires / Bushfires Weather Observation Techniques Weather Picture Catalogue Tornado Pictures and Reports Stock Video Footage and DVDs for sale
Season 1959-1960 Tropical Cyclone 196005 Track Map
Season 1959-1960 Summaries: [BoM-AU] [JTWC-AU] [JTWC-SIO] [JTWC-SPAC] [JTWC-SH]
<<- Previous TC | JTWC 1959-1960 Season | Next TC ->>

click for intensity scale information  Lat/long Grid: Show Hide

 Date Labels: Show Hide

Joint Typhoon Warning Centre Cyclone Data

Name: 196005
Number: 375 / 6005

22 Dec 1959 12:00 UTC to 31 Dec 1959 00:00 UTC

    date/time    lat    long     hPa   cat  kts
1959-12-22 12    7.9   156.6                              
1959-12-22 18    8.4   157.1                              
1959-12-23 00    9.0   157.6                              
1959-12-23 06    9.7   158.0                              
1959-12-23 12   10.5   158.4                              
1959-12-23 18   11.4   158.3                              
1959-12-24 00   12.3   158.5                              
1959-12-24 06   13.3   159.4                              
1959-12-24 12   14.2   160.5                              
1959-12-24 18   14.3   161.7                              
1959-12-25 00   14.0   162.7                              
1959-12-25 06   14.2   162.4                              
1959-12-25 12   14.4   161.6                              
1959-12-25 18   14.8   161.4                              
1959-12-26 00   15.2   161.2                              
1959-12-26 06   15.7   161.1                              
1959-12-26 12   16.2   161.0                              
1959-12-26 18   16.7   161.0                              
1959-12-27 00   17.1   161.0                              
1959-12-27 06   18.1   161.3                              
1959-12-27 12   19.2   162.0                              
1959-12-27 18   19.6   163.1                              
1959-12-28 00   19.6   164.5                              
1959-12-28 06   19.4   166.0                              
1959-12-28 12   19.2   167.5                              
1959-12-28 18   19.2   169.0                              
1959-12-29 00   19.3   170.5                              
1959-12-29 06   19.2   173.2                              
1959-12-29 12   19.0   176.3                              
1959-12-29 18   19.7   178.2                              
1959-12-30 00   21.5   179.8W                             
1959-12-30 06   24.2   176.9W                             
1959-12-30 12   27.0   174.0W                             
1959-12-30 18   29.2   171.9W                             
1959-12-31 00   31.2   170.4W                             
Winds are 1-min average.

Tropical cyclone tracks developed by Michael Bath using data from the Joint Typhoon Warning Centre Best Tracks and Google Maps.


[Australian Severe Weather index] [Copyright Notice] [Email Contacts] [Search This Site] [Privacy Policy]
Document: tropical_cyclone_196005.htm Updated: 18 September 2016